sensor_id;sensor_type;location;lat;lon;timestamp;P1;durP1;ratioP1;P2;durP2;ratioP2
71973;SDS011;59840;52.122;5.404;2022-09-09T00:01:14;2.05;;;0.40;;
71973;SDS011;59840;52.122;5.404;2022-09-09T00:04:11;0.95;;;0.40;;
71973;SDS011;59840;52.122;5.404;2022-09-09T00:06:45;0.60;;;0.40;;
71973;SDS011;59840;52.122;5.404;2022-09-09T00:09:31;0.85;;;0.30;;
71973;SDS011;59840;52.122;5.404;2022-09-09T00:12:12;0.57;;;0.50;;
71973;SDS011;59840;52.122;5.404;2022-09-09T00:14:43;2.20;;;0.50;;
71973;SDS011;59840;52.122;5.404;2022-09-09T00:20:00;1.30;;;0.40;;
71973;SDS011;59840;52.122;5.404;2022-09-09T00:22:37;0.90;;;0.40;;
71973;SDS011;59840;52.122;5.404;2022-09-09T00:25:17;1.35;;;0.50;;
71973;SDS011;59840;52.122;5.404;2022-09-09T00:27:53;1.85;;;0.45;;
71973;SDS011;59840;52.122;5.404;2022-09-09T00:30:22;1.13;;;0.45;;
71973;SDS011;59840;52.122;5.404;2022-09-09T00:32:54;1.17;;;0.40;;
71973;SDS011;59840;52.122;5.404;2022-09-09T00:35:29;0.80;;;0.60;;
71973;SDS011;59840;52.122;5.404;2022-09-09T00:38:09;1.05;;;0.50;;
71973;SDS011;59840;52.122;5.404;2022-09-09T00:40:50;2.00;;;0.70;;
71973;SDS011;59840;52.122;5.404;2022-09-09T00:43:25;0.65;;;0.50;;
71973;SDS011;59840;52.122;5.404;2022-09-09T00:48:20;2.65;;;0.80;;
71973;SDS011;59840;52.122;5.404;2022-09-09T00:50:57;1.90;;;0.90;;
71973;SDS011;59840;52.122;5.404;2022-09-09T00:56:42;4.30;;;1.02;;
71973;SDS011;59840;52.122;5.404;2022-09-09T00:59:35;1.20;;;1.03;;
71973;SDS011;59840;52.122;5.404;2022-09-09T01:02:15;1.10;;;0.70;;
71973;SDS011;59840;52.122;5.404;2022-09-09T01:04:56;2.08;;;0.90;;
71973;SDS011;59840;52.122;5.404;2022-09-09T01:07:33;1.63;;;1.10;;
71973;SDS011;59840;52.122;5.404;2022-09-09T01:10:00;2.58;;;1.10;;
71973;SDS011;59840;52.122;5.404;2022-09-09T01:12:35;1.60;;;0.90;;
71973;SDS011;59840;52.122;5.404;2022-09-09T01:15:12;3.35;;;0.85;;
71973;SDS011;59840;52.122;5.404;2022-09-09T01:26:08;1.60;;;1.03;;
71973;SDS011;59840;52.122;5.404;2022-09-09T01:28:54;3.58;;;1.30;;
71973;SDS011;59840;52.122;5.404;2022-09-09T01:31:35;5.70;;;1.40;;
71973;SDS011;59840;52.122;5.404;2022-09-09T01:34:14;2.22;;;1.05;;
71973;SDS011;59840;52.122;5.404;2022-09-09T01:36:46;2.35;;;1.10;;
71973;SDS011;59840;52.122;5.404;2022-09-09T01:39:18;1.77;;;1.30;;
71973;SDS011;59840;52.122;5.404;2022-09-09T01:41:46;3.40;;;1.30;;
71973;SDS011;59840;52.122;5.404;2022-09-09T01:44:12;4.18;;;1.08;;
71973;SDS011;59840;52.122;5.404;2022-09-09T01:46:39;2.28;;;1.20;;
71973;SDS011;59840;52.122;5.404;2022-09-09T01:49:06;3.13;;;1.40;;
71973;SDS011;59840;52.122;5.404;2022-09-09T01:51:34;2.10;;;1.33;;
71973;SDS011;59840;52.122;5.404;2022-09-09T01:54:02;1.73;;;1.20;;
71973;SDS011;59840;52.122;5.404;2022-09-09T01:59:35;2.72;;;1.50;;
71973;SDS011;59840;52.122;5.404;2022-09-09T02:02:19;1.95;;;1.33;;
71973;SDS011;59840;52.122;5.404;2022-09-09T02:04:53;3.87;;;1.60;;
71973;SDS011;59840;52.122;5.404;2022-09-09T02:13:12;2.40;;;1.50;;
71973;SDS011;59840;52.122;5.404;2022-09-09T02:15:45;3.85;;;1.38;;
71973;SDS011;59840;52.122;5.404;2022-09-09T02:18:20;3.40;;;1.70;;
71973;SDS011;59840;52.122;5.404;2022-09-09T02:21:10;2.92;;;1.67;;
71973;SDS011;59840;52.122;5.404;2022-09-09T02:23:37;3.85;;;1.85;;
71973;SDS011;59840;52.122;5.404;2022-09-09T02:26:07;2.95;;;1.95;;
71973;SDS011;59840;52.122;5.404;2022-09-09T02:28:36;2.80;;;1.52;;
71973;SDS011;59840;52.122;5.404;2022-09-09T02:31:05;2.47;;;1.57;;
71973;SDS011;59840;52.122;5.404;2022-09-09T02:33:37;1.58;;;1.33;;
71973;SDS011;59840;52.122;5.404;2022-09-09T02:36:07;3.40;;;1.98;;
71973;SDS011;59840;52.122;5.404;2022-09-09T02:38:38;3.58;;;2.03;;
71973;SDS011;59840;52.122;5.404;2022-09-09T02:41:08;2.95;;;1.55;;
71973;SDS011;59840;52.122;5.404;2022-09-09T02:43:35;3.37;;;1.63;;
71973;SDS011;59840;52.122;5.404;2022-09-09T02:49:11;2.53;;;1.65;;
71973;SDS011;59840;52.122;5.404;2022-09-09T02:51:51;3.28;;;2.20;;
71973;SDS011;59840;52.122;5.404;2022-09-09T02:54:26;3.15;;;2.00;;
71973;SDS011;59840;52.122;5.404;2022-09-09T02:57:40;3.03;;;2.40;;
71973;SDS011;59840;52.122;5.404;2022-09-09T02:59:53;2.45;;;1.70;;
71973;SDS011;59840;52.122;5.404;2022-09-09T03:02:24;3.17;;;1.80;;
71973;SDS011;59840;52.122;5.404;2022-09-09T03:04:51;3.20;;;2.03;;
71973;SDS011;59840;52.122;5.404;2022-09-09T03:07:18;2.97;;;2.10;;
71973;SDS011;59840;52.122;5.404;2022-09-09T03:09:45;4.00;;;2.47;;
71973;SDS011;59840;52.122;5.404;2022-09-09T03:12:12;2.97;;;1.73;;
71973;SDS011;59840;52.122;5.404;2022-09-09T03:14:38;4.63;;;2.65;;
71973;SDS011;59840;52.122;5.404;2022-09-09T03:17:05;4.28;;;2.47;;
71973;SDS011;59840;52.122;5.404;2022-09-09T03:19:32;5.85;;;2.22;;
71973;SDS011;59840;52.122;5.404;2022-09-09T03:21:58;4.13;;;2.70;;
71973;SDS011;59840;52.122;5.404;2022-09-09T03:24:26;3.97;;;2.47;;
71973;SDS011;59840;52.122;5.404;2022-09-09T03:26:52;4.25;;;2.17;;
71973;SDS011;59840;52.122;5.404;2022-09-09T03:29:19;4.43;;;2.42;;
71973;SDS011;59840;52.122;5.404;2022-09-09T03:31:45;3.58;;;2.40;;
71973;SDS011;59840;52.122;5.404;2022-09-09T03:34:12;3.10;;;2.43;;
71973;SDS011;59840;52.122;5.404;2022-09-09T03:36:39;4.00;;;2.60;;
71973;SDS011;59840;52.122;5.404;2022-09-09T03:39:07;5.10;;;2.55;;
71973;SDS011;59840;52.122;5.404;2022-09-09T03:41:33;2.75;;;2.45;;
71973;SDS011;59840;52.122;5.404;2022-09-09T03:44:00;2.85;;;2.55;;
71973;SDS011;59840;52.122;5.404;2022-09-09T03:46:26;5.67;;;2.87;;
71973;SDS011;59840;52.122;5.404;2022-09-09T03:48:53;2.80;;;2.50;;
71973;SDS011;59840;52.122;5.404;2022-09-09T03:51:19;3.58;;;2.60;;
71973;SDS011;59840;52.122;5.404;2022-09-09T03:53:47;4.47;;;2.70;;
71973;SDS011;59840;52.122;5.404;2022-09-09T03:56:13;2.83;;;2.47;;
71973;SDS011;59840;52.122;5.404;2022-09-09T03:58:40;3.53;;;2.83;;
71973;SDS011;59840;52.122;5.404;2022-09-09T04:01:11;3.70;;;3.00;;
71973;SDS011;59840;52.122;5.404;2022-09-09T04:03:40;3.90;;;2.60;;
71973;SDS011;59840;52.122;5.404;2022-09-09T04:06:07;4.18;;;2.53;;
71973;SDS011;59840;52.122;5.404;2022-09-09T04:08:35;4.38;;;2.72;;
71973;SDS011;59840;52.122;5.404;2022-09-09T04:11:02;4.93;;;2.87;;
71973;SDS011;59840;52.122;5.404;2022-09-09T04:13:32;6.45;;;2.83;;
71973;SDS011;59840;52.122;5.404;2022-09-09T04:16:00;3.17;;;2.58;;
71973;SDS011;59840;52.122;5.404;2022-09-09T04:18:29;3.70;;;2.65;;
71973;SDS011;59840;52.122;5.404;2022-09-09T04:20:57;6.43;;;3.30;;
71973;SDS011;59840;52.122;5.404;2022-09-09T04:23:26;5.30;;;2.77;;
71973;SDS011;59840;52.122;5.404;2022-09-09T04:25:55;2.75;;;2.45;;
71973;SDS011;59840;52.122;5.404;2022-09-09T04:28:24;6.30;;;2.58;;
71973;SDS011;59840;52.122;5.404;2022-09-09T04:30:52;4.07;;;2.80;;
71973;SDS011;59840;52.122;5.404;2022-09-09T04:33:19;3.85;;;2.47;;
71973;SDS011;59840;52.122;5.404;2022-09-09T04:35:47;3.97;;;2.57;;
71973;SDS011;59840;52.122;5.404;2022-09-09T04:38:15;5.50;;;2.80;;
71973;SDS011;59840;52.122;5.404;2022-09-09T04:40:43;3.25;;;2.60;;
71973;SDS011;59840;52.122;5.404;2022-09-09T04:43:12;5.38;;;2.83;;
71973;SDS011;59840;52.122;5.404;2022-09-09T04:45:43;3.95;;;2.20;;
71973;SDS011;59840;52.122;5.404;2022-09-09T04:48:12;3.77;;;2.40;;
71973;SDS011;59840;52.122;5.404;2022-09-09T04:50:39;3.45;;;2.33;;
71973;SDS011;59840;52.122;5.404;2022-09-09T04:53:06;5.68;;;2.10;;
71973;SDS011;59840;52.122;5.404;2022-09-09T04:55:33;3.88;;;2.50;;
71973;SDS011;59840;52.122;5.404;2022-09-09T04:58:04;3.60;;;2.15;;
71973;SDS011;59840;52.122;5.404;2022-09-09T05:00:32;3.70;;;2.30;;
71973;SDS011;59840;52.122;5.404;2022-09-09T05:03:02;2.58;;;2.20;;
71973;SDS011;59840;52.122;5.404;2022-09-09T05:05:32;4.32;;;2.08;;
71973;SDS011;59840;52.122;5.404;2022-09-09T05:08:03;2.88;;;2.03;;
71973;SDS011;59840;52.122;5.404;2022-09-09T05:10:30;4.38;;;2.17;;
71973;SDS011;59840;52.122;5.404;2022-09-09T05:12:57;2.40;;;1.97;;
71973;SDS011;59840;52.122;5.404;2022-09-09T05:15:24;4.63;;;1.98;;
71973;SDS011;59840;52.122;5.404;2022-09-09T05:17:50;5.85;;;2.38;;
71973;SDS011;59840;52.122;5.404;2022-09-09T05:20:19;3.65;;;2.13;;
71973;SDS011;59840;52.122;5.404;2022-09-09T05:22:45;4.70;;;2.00;;
71973;SDS011;59840;52.122;5.404;2022-09-09T05:25:12;5.00;;;1.87;;
71973;SDS011;59840;52.122;5.404;2022-09-09T05:27:38;7.43;;;2.33;;
71973;SDS011;59840;52.122;5.404;2022-09-09T05:30:05;3.03;;;1.80;;
71973;SDS011;59840;52.122;5.404;2022-09-09T05:32:32;2.15;;;1.85;;
71973;SDS011;59840;52.122;5.404;2022-09-09T05:34:59;4.28;;;2.08;;
71973;SDS011;59840;52.122;5.404;2022-09-09T05:37:25;2.30;;;1.80;;
71973;SDS011;59840;52.122;5.404;2022-09-09T05:39:52;4.72;;;2.05;;
71973;SDS011;59840;52.122;5.404;2022-09-09T05:42:19;3.35;;;1.85;;
71973;SDS011;59840;52.122;5.404;2022-09-09T05:44:46;5.57;;;2.10;;
71973;SDS011;59840;52.122;5.404;2022-09-09T05:47:12;4.18;;;2.13;;
71973;SDS011;59840;52.122;5.404;2022-09-09T05:49:38;4.10;;;1.93;;
71973;SDS011;59840;52.122;5.404;2022-09-09T05:52:05;3.13;;;1.80;;
71973;SDS011;59840;52.122;5.404;2022-09-09T05:54:32;4.03;;;1.88;;
71973;SDS011;59840;52.122;5.404;2022-09-09T05:56:58;5.97;;;2.20;;
71973;SDS011;59840;52.122;5.404;2022-09-09T05:59:25;6.57;;;2.05;;
71973;SDS011;59840;52.122;5.404;2022-09-09T06:01:52;4.10;;;2.00;;
71973;SDS011;59840;52.122;5.404;2022-09-09T06:04:19;4.18;;;1.73;;
71973;SDS011;59840;52.122;5.404;2022-09-09T06:06:50;3.45;;;2.00;;
71973;SDS011;59840;52.122;5.404;2022-09-09T06:09:16;2.30;;;1.77;;
71973;SDS011;59840;52.122;5.404;2022-09-09T06:11:43;5.00;;;2.38;;
71973;SDS011;59840;52.122;5.404;2022-09-09T06:14:10;5.00;;;2.30;;
71973;SDS011;59840;52.122;5.404;2022-09-09T06:16:36;5.90;;;1.98;;
71973;SDS011;59840;52.122;5.404;2022-09-09T06:19:04;4.70;;;2.20;;
71973;SDS011;59840;52.122;5.404;2022-09-09T06:21:31;6.82;;;2.17;;
71973;SDS011;59840;52.122;5.404;2022-09-09T06:23:59;4.85;;;1.65;;
71973;SDS011;59840;52.122;5.404;2022-09-09T06:26:33;3.47;;;1.87;;
71973;SDS011;59840;52.122;5.404;2022-09-09T06:29:01;4.65;;;1.92;;
71973;SDS011;59840;52.122;5.404;2022-09-09T06:31:30;5.63;;;1.70;;
71973;SDS011;59840;52.122;5.404;2022-09-09T06:34:00;6.30;;;1.90;;
71973;SDS011;59840;52.122;5.404;2022-09-09T06:36:31;5.65;;;1.73;;
71973;SDS011;59840;52.122;5.404;2022-09-09T06:38:59;3.97;;;1.50;;
71973;SDS011;59840;52.122;5.404;2022-09-09T06:41:27;5.65;;;1.60;;
71973;SDS011;59840;52.122;5.404;2022-09-09T06:43:56;6.40;;;1.55;;
71973;SDS011;59840;52.122;5.404;2022-09-09T06:46:23;3.00;;;1.85;;
71973;SDS011;59840;52.122;5.404;2022-09-09T06:48:56;3.92;;;1.33;;
71973;SDS011;59840;52.122;5.404;2022-09-09T06:51:27;7.43;;;2.07;;
71973;SDS011;59840;52.122;5.404;2022-09-09T06:53:56;4.45;;;1.70;;
71973;SDS011;59840;52.122;5.404;2022-09-09T06:56:34;6.95;;;1.58;;
71973;SDS011;59840;52.122;5.404;2022-09-09T06:59:03;5.13;;;1.63;;
71973;SDS011;59840;52.122;5.404;2022-09-09T07:01:32;4.95;;;1.50;;
71973;SDS011;59840;52.122;5.404;2022-09-09T07:03:59;5.73;;;1.30;;
71973;SDS011;59840;52.122;5.404;2022-09-09T07:06:30;5.00;;;1.60;;
71973;SDS011;59840;52.122;5.404;2022-09-09T07:08:59;7.53;;;1.30;;
71973;SDS011;59840;52.122;5.404;2022-09-09T07:11:30;6.63;;;1.90;;
71973;SDS011;59840;52.122;5.404;2022-09-09T07:13:59;2.88;;;1.00;;
71973;SDS011;59840;52.122;5.404;2022-09-09T07:16:27;5.20;;;1.33;;
71973;SDS011;59840;52.122;5.404;2022-09-09T07:18:54;5.88;;;1.40;;
71973;SDS011;59840;52.122;5.404;2022-09-09T07:21:25;7.22;;;1.35;;
71973;SDS011;59840;52.122;5.404;2022-09-09T07:23:52;5.35;;;1.20;;
71973;SDS011;59840;52.122;5.404;2022-09-09T07:26:21;8.45;;;1.30;;
71973;SDS011;59840;52.122;5.404;2022-09-09T07:28:52;7.03;;;1.20;;
71973;SDS011;59840;52.122;5.404;2022-09-09T07:31:23;5.18;;;1.27;;
71973;SDS011;59840;52.122;5.404;2022-09-09T07:33:56;7.18;;;1.63;;
71973;SDS011;59840;52.122;5.404;2022-09-09T07:36:24;2.83;;;1.10;;
71973;SDS011;59840;52.122;5.404;2022-09-09T07:39:03;3.42;;;1.25;;
71973;SDS011;59840;52.122;5.404;2022-09-09T07:41:33;6.20;;;1.10;;
71973;SDS011;59840;52.122;5.404;2022-09-09T07:44:06;2.78;;;1.10;;
71973;SDS011;59840;52.122;5.404;2022-09-09T07:46:34;5.18;;;1.48;;
71973;SDS011;59840;52.122;5.404;2022-09-09T07:49:02;5.75;;;1.38;;
71973;SDS011;59840;52.122;5.404;2022-09-09T07:51:31;4.40;;;1.30;;
71973;SDS011;59840;52.122;5.404;2022-09-09T07:54:01;5.37;;;1.50;;
71973;SDS011;59840;52.122;5.404;2022-09-09T07:56:32;4.55;;;1.00;;
71973;SDS011;59840;52.122;5.404;2022-09-09T07:58:59;3.58;;;1.20;;
71973;SDS011;59840;52.122;5.404;2022-09-09T08:01:29;2.60;;;1.50;;
71973;SDS011;59840;52.122;5.404;2022-09-09T08:03:59;5.38;;;1.30;;
71973;SDS011;59840;52.122;5.404;2022-09-09T08:06:29;5.70;;;1.47;;
71973;SDS011;59840;52.122;5.404;2022-09-09T08:08:57;4.38;;;1.33;;
71973;SDS011;59840;52.122;5.404;2022-09-09T08:11:24;4.57;;;1.08;;
71973;SDS011;59840;52.122;5.404;2022-09-09T08:13:52;3.78;;;1.27;;
71973;SDS011;59840;52.122;5.404;2022-09-09T08:16:26;3.97;;;1.65;;
71973;SDS011;59840;52.122;5.404;2022-09-09T08:18:56;8.17;;;1.07;;
71973;SDS011;59840;52.122;5.404;2022-09-09T08:21:25;4.63;;;1.60;;
71973;SDS011;59840;52.122;5.404;2022-09-09T08:23:56;3.10;;;1.27;;
71973;SDS011;59840;52.122;5.404;2022-09-09T08:26:25;4.88;;;1.10;;
71973;SDS011;59840;52.122;5.404;2022-09-09T08:29:00;2.53;;;1.00;;
71973;SDS011;59840;52.122;5.404;2022-09-09T08:31:32;6.60;;;1.43;;
71973;SDS011;59840;52.122;5.404;2022-09-09T08:34:04;5.03;;;1.20;;
71973;SDS011;59840;52.122;5.404;2022-09-09T08:36:33;4.82;;;1.10;;
71973;SDS011;59840;52.122;5.404;2022-09-09T08:39:02;4.40;;;1.25;;
71973;SDS011;59840;52.122;5.404;2022-09-09T08:41:36;7.03;;;1.10;;
71973;SDS011;59840;52.122;5.404;2022-09-09T08:53:00;2.88;;;1.20;;
71973;SDS011;59840;52.122;5.404;2022-09-09T08:55:40;2.75;;;1.08;;
71973;SDS011;59840;52.122;5.404;2022-09-09T09:00:58;5.72;;;1.10;;
71973;SDS011;59840;52.122;5.404;2022-09-09T09:03:43;3.53;;;1.30;;
71973;SDS011;59840;52.122;5.404;2022-09-09T09:11:55;1.97;;;1.27;;
71973;SDS011;59840;52.122;5.404;2022-09-09T09:14:28;3.50;;;0.90;;
71973;SDS011;59840;52.122;5.404;2022-09-09T09:16:57;4.40;;;1.35;;
71973;SDS011;59840;52.122;5.404;2022-09-09T09:19:26;4.22;;;1.00;;
71973;SDS011;59840;52.122;5.404;2022-09-09T09:29:59;4.60;;;0.93;;
71973;SDS011;59840;52.122;5.404;2022-09-09T09:35:27;5.25;;;1.10;;
71973;SDS011;59840;52.122;5.404;2022-09-09T09:37:53;4.83;;;1.20;;
71973;SDS011;59840;52.122;5.404;2022-09-09T09:40:48;3.35;;;0.88;;
71973;SDS011;59840;52.122;5.404;2022-09-09T09:43:25;7.80;;;1.25;;
71973;SDS011;59840;52.122;5.404;2022-09-09T09:45:54;3.92;;;1.25;;
71973;SDS011;59840;52.122;5.404;2022-09-09T09:48:42;5.85;;;1.10;;
71973;SDS011;59840;52.122;5.404;2022-09-09T09:51:10;4.37;;;0.90;;
71973;SDS011;59840;52.122;5.404;2022-09-09T09:53:41;5.05;;;1.08;;
71973;SDS011;59840;52.122;5.404;2022-09-09T09:56:09;3.95;;;1.00;;
71973;SDS011;59840;52.122;5.404;2022-09-09T10:04:18;8.33;;;1.17;;
71973;SDS011;59840;52.122;5.404;2022-09-09T10:06:49;4.40;;;0.77;;
71973;SDS011;59840;52.122;5.404;2022-09-09T10:09:26;1.63;;;0.80;;
71973;SDS011;59840;52.122;5.404;2022-09-09T10:17:32;5.77;;;1.00;;
71973;SDS011;59840;52.122;5.404;2022-09-09T10:25:55;3.00;;;0.70;;
71973;SDS011;59840;52.122;5.404;2022-09-09T10:28:29;3.40;;;0.75;;
71973;SDS011;59840;52.122;5.404;2022-09-09T10:31:11;5.77;;;1.10;;
71973;SDS011;59840;52.122;5.404;2022-09-09T10:33:59;3.92;;;0.98;;
71973;SDS011;59840;52.122;5.404;2022-09-09T10:36:40;6.47;;;1.02;;
71973;SDS011;59840;52.122;5.404;2022-09-09T10:42:14;1.60;;;1.08;;
71973;SDS011;59840;52.122;5.404;2022-09-09T10:44:52;4.63;;;1.50;;
71973;SDS011;59840;52.122;5.404;2022-09-09T10:50:06;4.15;;;0.85;;
71973;SDS011;59840;52.122;5.404;2022-09-09T10:55:35;2.78;;;1.08;;
71973;SDS011;59840;52.122;5.404;2022-09-09T10:58:08;4.27;;;1.00;;
71973;SDS011;59840;52.122;5.404;2022-09-09T11:00:42;3.00;;;1.10;;
71973;SDS011;59840;52.122;5.404;2022-09-09T11:03:17;2.33;;;1.20;;
71973;SDS011;59840;52.122;5.404;2022-09-09T11:05:46;3.55;;;1.15;;
71973;SDS011;59840;52.122;5.404;2022-09-09T11:11:03;3.30;;;1.17;;
71973;SDS011;59840;52.122;5.404;2022-09-09T11:16:51;4.32;;;1.13;;
71973;SDS011;59840;52.122;5.404;2022-09-09T11:19:41;4.78;;;1.95;;
71973;SDS011;59840;52.122;5.404;2022-09-09T11:25:34;5.33;;;1.50;;
71973;SDS011;59840;52.122;5.404;2022-09-09T11:34:10;2.83;;;1.02;;
71973;SDS011;59840;52.122;5.404;2022-09-09T11:36:56;4.03;;;1.10;;
71973;SDS011;59840;52.122;5.404;2022-09-09T11:39:49;3.40;;;1.20;;
71973;SDS011;59840;52.122;5.404;2022-09-09T11:42:35;5.90;;;1.00;;
71973;SDS011;59840;52.122;5.404;2022-09-09T11:45:19;4.85;;;1.02;;
71973;SDS011;59840;52.122;5.404;2022-09-09T11:47:53;3.05;;;1.13;;
71973;SDS011;59840;52.122;5.404;2022-09-09T11:52:48;3.60;;;0.90;;
71973;SDS011;59840;52.122;5.404;2022-09-09T11:58:04;5.03;;;0.98;;
71973;SDS011;59840;52.122;5.404;2022-09-09T12:03:04;3.15;;;1.23;;
71973;SDS011;59840;52.122;5.404;2022-09-09T12:05:49;3.30;;;1.07;;
71973;SDS011;59840;52.122;5.404;2022-09-09T12:08:18;4.55;;;1.42;;
71973;SDS011;59840;52.122;5.404;2022-09-09T12:10:57;2.83;;;1.40;;
71973;SDS011;59840;52.122;5.404;2022-09-09T12:13:29;4.15;;;1.42;;
71973;SDS011;59840;52.122;5.404;2022-09-09T12:15:58;4.28;;;1.20;;
71973;SDS011;59840;52.122;5.404;2022-09-09T12:18:35;3.77;;;1.53;;
71973;SDS011;59840;52.122;5.404;2022-09-09T12:24:09;2.58;;;1.00;;
71973;SDS011;59840;52.122;5.404;2022-09-09T12:26:39;4.35;;;1.92;;
71973;SDS011;59840;52.122;5.404;2022-09-09T12:32:11;2.77;;;1.20;;
71973;SDS011;59840;52.122;5.404;2022-09-09T12:34:44;1.35;;;0.95;;
71973;SDS011;59840;52.122;5.404;2022-09-09T12:37:17;3.13;;;1.33;;
71973;SDS011;59840;52.122;5.404;2022-09-09T12:39:56;3.75;;;1.33;;
71973;SDS011;59840;52.122;5.404;2022-09-09T12:42:25;4.07;;;1.25;;
71973;SDS011;59840;52.122;5.404;2022-09-09T12:45:00;4.30;;;1.27;;
71973;SDS011;59840;52.122;5.404;2022-09-09T12:49:56;3.97;;;1.63;;
71973;SDS011;59840;52.122;5.404;2022-09-09T12:52:25;3.42;;;1.40;;
71973;SDS011;59840;52.122;5.404;2022-09-09T12:54:56;3.20;;;1.45;;
71973;SDS011;59840;52.122;5.404;2022-09-09T12:57:24;2.67;;;1.20;;
71973;SDS011;59840;52.122;5.404;2022-09-09T12:59:52;3.63;;;1.25;;
71973;SDS011;59840;52.122;5.404;2022-09-09T13:02:35;2.67;;;1.50;;
71973;SDS011;59840;52.122;5.404;2022-09-09T13:05:15;2.08;;;1.20;;
71973;SDS011;59840;52.122;5.404;2022-09-09T13:07:59;2.10;;;1.20;;
71973;SDS011;59840;52.122;5.404;2022-09-09T13:10:28;3.77;;;1.07;;
71973;SDS011;59840;52.122;5.404;2022-09-09T13:13:23;3.05;;;1.30;;
71973;SDS011;59840;52.122;5.404;2022-09-09T13:15:54;2.15;;;1.27;;
71973;SDS011;59840;52.122;5.404;2022-09-09T13:18:23;3.88;;;1.10;;
71973;SDS011;59840;52.122;5.404;2022-09-09T13:20:55;3.53;;;1.10;;
71973;SDS011;59840;52.122;5.404;2022-09-09T13:23:27;4.40;;;1.13;;
71973;SDS011;59840;52.122;5.404;2022-09-09T13:25:59;2.75;;;1.38;;
71973;SDS011;59840;52.122;5.404;2022-09-09T13:28:28;2.67;;;1.38;;
71973;SDS011;59840;52.122;5.404;2022-09-09T13:31:00;3.78;;;1.52;;
71973;SDS011;59840;52.122;5.404;2022-09-09T13:33:36;3.47;;;1.30;;
71973;SDS011;59840;52.122;5.404;2022-09-09T13:36:05;2.93;;;1.50;;
71973;SDS011;59840;52.122;5.404;2022-09-09T13:38:38;4.05;;;1.30;;
71973;SDS011;59840;52.122;5.404;2022-09-09T13:41:19;3.20;;;1.30;;
71973;SDS011;59840;52.122;5.404;2022-09-09T13:43:47;4.40;;;1.70;;
71973;SDS011;59840;52.122;5.404;2022-09-09T13:46:28;3.53;;;1.60;;
71973;SDS011;59840;52.122;5.404;2022-09-09T13:51:44;3.30;;;1.55;;
71973;SDS011;59840;52.122;5.404;2022-09-09T13:54:14;2.67;;;1.33;;
71973;SDS011;59840;52.122;5.404;2022-09-09T13:56:42;4.65;;;1.52;;
71973;SDS011;59840;52.122;5.404;2022-09-09T13:59:14;2.35;;;1.38;;
71973;SDS011;59840;52.122;5.404;2022-09-09T14:01:42;3.57;;;1.37;;
71973;SDS011;59840;52.122;5.404;2022-09-09T14:04:09;3.22;;;1.30;;
71973;SDS011;59840;52.122;5.404;2022-09-09T14:06:36;4.03;;;1.60;;
71973;SDS011;59840;52.122;5.404;2022-09-09T14:09:08;2.60;;;1.20;;
71973;SDS011;59840;52.122;5.404;2022-09-09T14:11:37;2.97;;;1.15;;
71973;SDS011;59840;52.122;5.404;2022-09-09T14:14:04;3.83;;;1.50;;
71973;SDS011;59840;52.122;5.404;2022-09-09T14:16:31;2.20;;;1.20;;
71973;SDS011;59840;52.122;5.404;2022-09-09T14:18:58;3.75;;;1.20;;
71973;SDS011;59840;52.122;5.404;2022-09-09T14:21:25;1.92;;;1.10;;
71973;SDS011;59840;52.122;5.404;2022-09-09T14:23:52;2.65;;;1.25;;
71973;SDS011;59840;52.122;5.404;2022-09-09T14:26:19;3.93;;;1.20;;
71973;SDS011;59840;52.122;5.404;2022-09-09T14:28:47;4.57;;;1.63;;
71973;SDS011;59840;52.122;5.404;2022-09-09T14:31:21;2.95;;;1.30;;
71973;SDS011;59840;52.122;5.404;2022-09-09T14:33:48;1.63;;;1.30;;
71973;SDS011;59840;52.122;5.404;2022-09-09T14:36:16;3.25;;;1.20;;
71973;SDS011;59840;52.122;5.404;2022-09-09T14:38:43;4.87;;;1.47;;
71973;SDS011;59840;52.122;5.404;2022-09-09T14:41:13;5.95;;;1.80;;
71973;SDS011;59840;52.122;5.404;2022-09-09T14:43:44;4.53;;;1.52;;
71973;SDS011;59840;52.122;5.404;2022-09-09T14:46:12;3.40;;;1.67;;
71973;SDS011;59840;52.122;5.404;2022-09-09T14:48:41;7.07;;;1.67;;
71973;SDS011;59840;52.122;5.404;2022-09-09T14:51:15;2.93;;;1.70;;
71973;SDS011;59840;52.122;5.404;2022-09-09T14:53:45;4.90;;;1.67;;
71973;SDS011;59840;52.122;5.404;2022-09-09T14:56:14;5.18;;;2.10;;
71973;SDS011;59840;52.122;5.404;2022-09-09T14:58:42;2.35;;;1.80;;
71973;SDS011;59840;52.122;5.404;2022-09-09T15:01:17;3.42;;;1.80;;
71973;SDS011;59840;52.122;5.404;2022-09-09T15:03:52;3.43;;;1.80;;
71973;SDS011;59840;52.122;5.404;2022-09-09T15:06:19;3.72;;;2.05;;
71973;SDS011;59840;52.122;5.404;2022-09-09T15:08:47;3.00;;;1.80;;
71973;SDS011;59840;52.122;5.404;2022-09-09T15:11:15;4.90;;;1.80;;
71973;SDS011;59840;52.122;5.404;2022-09-09T15:13:43;4.50;;;1.60;;
71973;SDS011;59840;52.122;5.404;2022-09-09T15:16:11;3.67;;;1.27;;
71973;SDS011;59840;52.122;5.404;2022-09-09T15:18:40;1.00;;;0.90;;
71973;SDS011;59840;52.122;5.404;2022-09-09T15:21:11;3.40;;;0.95;;
71973;SDS011;59840;52.122;5.404;2022-09-09T15:23:39;3.05;;;1.15;;
71973;SDS011;59840;52.122;5.404;2022-09-09T15:26:06;2.75;;;0.93;;
71973;SDS011;59840;52.122;5.404;2022-09-09T15:28:34;1.80;;;0.70;;
71973;SDS011;59840;52.122;5.404;2022-09-09T15:31:10;2.92;;;0.70;;
71973;SDS011;59840;52.122;5.404;2022-09-09T15:33:40;1.52;;;0.70;;
71973;SDS011;59840;52.122;5.404;2022-09-09T15:36:14;1.75;;;0.70;;
71973;SDS011;59840;52.122;5.404;2022-09-09T15:38:49;1.45;;;0.80;;
71973;SDS011;59840;52.122;5.404;2022-09-09T15:41:17;2.50;;;0.90;;
71973;SDS011;59840;52.122;5.404;2022-09-09T15:43:47;3.05;;;1.08;;
71973;SDS011;59840;52.122;5.404;2022-09-09T15:48:56;2.25;;;0.75;;
71973;SDS011;59840;52.122;5.404;2022-09-09T15:51:24;3.38;;;0.95;;
71973;SDS011;59840;52.122;5.404;2022-09-09T15:54:19;1.60;;;0.97;;
71973;SDS011;59840;52.122;5.404;2022-09-09T15:56:56;1.80;;;0.70;;
71973;SDS011;59840;52.122;5.404;2022-09-09T15:59:25;1.25;;;0.80;;
71973;SDS011;59840;52.122;5.404;2022-09-09T16:01:54;1.38;;;0.70;;
71973;SDS011;59840;52.122;5.404;2022-09-09T16:04:21;1.02;;;0.70;;
71973;SDS011;59840;52.122;5.404;2022-09-09T16:06:52;1.83;;;0.80;;
71973;SDS011;59840;52.122;5.404;2022-09-09T16:09:20;2.08;;;0.93;;
71973;SDS011;59840;52.122;5.404;2022-09-09T16:11:47;2.20;;;0.90;;
71973;SDS011;59840;52.122;5.404;2022-09-09T16:14:14;2.00;;;0.80;;
71973;SDS011;59840;52.122;5.404;2022-09-09T16:16:42;1.48;;;0.90;;
71973;SDS011;59840;52.122;5.404;2022-09-09T16:19:09;2.07;;;0.97;;
71973;SDS011;59840;52.122;5.404;2022-09-09T16:21:39;2.47;;;1.00;;
71973;SDS011;59840;52.122;5.404;2022-09-09T16:24:15;1.50;;;0.73;;
71973;SDS011;59840;52.122;5.404;2022-09-09T16:26:45;1.75;;;0.85;;
71973;SDS011;59840;52.122;5.404;2022-09-09T16:29:13;1.75;;;0.80;;
71973;SDS011;59840;52.122;5.404;2022-09-09T16:31:41;1.53;;;0.83;;
71973;SDS011;59840;52.122;5.404;2022-09-09T16:34:08;3.15;;;1.05;;
71973;SDS011;59840;52.122;5.404;2022-09-09T16:36:36;1.50;;;0.80;;
71973;SDS011;59840;52.122;5.404;2022-09-09T16:39:06;1.33;;;0.70;;
71973;SDS011;59840;52.122;5.404;2022-09-09T16:41:35;2.22;;;1.15;;
71973;SDS011;59840;52.122;5.404;2022-09-09T16:44:03;2.43;;;0.90;;
71973;SDS011;59840;52.122;5.404;2022-09-09T16:46:32;3.60;;;1.15;;
71973;SDS011;59840;52.122;5.404;2022-09-09T16:49:02;2.20;;;0.98;;
71973;SDS011;59840;52.122;5.404;2022-09-09T16:51:31;1.83;;;1.05;;
71973;SDS011;59840;52.122;5.404;2022-09-09T16:54:00;2.67;;;1.05;;
71973;SDS011;59840;52.122;5.404;2022-09-09T16:56:29;2.57;;;0.90;;
71973;SDS011;59840;52.122;5.404;2022-09-09T16:59:01;2.75;;;1.40;;
71973;SDS011;59840;52.122;5.404;2022-09-09T17:01:30;1.77;;;1.00;;
71973;SDS011;59840;52.122;5.404;2022-09-09T17:03:59;2.20;;;0.85;;
71973;SDS011;59840;52.122;5.404;2022-09-09T17:06:31;3.03;;;0.90;;
71973;SDS011;59840;52.122;5.404;2022-09-09T17:09:06;4.67;;;0.80;;
71973;SDS011;59840;52.122;5.404;2022-09-09T17:11:37;2.25;;;0.98;;